GTI479 KLAX-KOAK
Flight info
| Callsign | GTI479 |
|---|---|
| Flight time | 0h 49m |
| Altitude | 30000 |
| Route | LADYJ4 COREZ RGOOD EMZOH4 |
| Aircraft | B77L/H-SDE1E2E3FGHIJ2J3J4J5M1RWXY/LB1D1 |
Departure
| Time | 2026-04-21 05:09 |
|---|---|
| Airport | Los Angeles International Airport (KLAX) |
Arrival
| Time | 2026-04-21 05:58 |
|---|---|
| Airport | San Francisco Bay Oakland International Airport (KOAK) |
| Time | Latitude | Longitude | Altitude | Speed | Heading |
|---|---|---|---|---|---|
| 2026-04-21 04:31 | 33.93329 | -118.40222 | 126 ft | 0 kts | 173° |
| 2026-04-21 05:00 | 33.93348 | -118.40225 | 126 ft | 2 kts | 173° |
| 2026-04-21 05:00 | 33.93363 | -118.40227 | 126 ft | 2 kts | 173° |
| 2026-04-21 05:00 | 33.93386 | -118.40232 | 127 ft | 2 kts | 152° |
| 2026-04-21 05:01 | 33.93398 | -118.40243 | 127 ft | 2 kts | 130° |
| 2026-04-21 05:01 | 33.93406 | -118.40258 | 127 ft | 2 kts | 109° |
| 2026-04-21 05:01 | 33.93409 | -118.40276 | 127 ft | 2 kts | 88° |
| 2026-04-21 05:01 | 33.93409 | -118.40283 | 127 ft | 1 kts | 82° |
| 2026-04-21 05:02 | 33.93408 | -118.40284 | 127 ft | 0 kts | 82° |
| 2026-04-21 05:03 | 33.93409 | -118.40277 | 127 ft | 2 kts | 82° |
| 2026-04-21 05:03 | 33.93413 | -118.40243 | 127 ft | 5 kts | 82° |
| 2026-04-21 05:04 | 33.93420 | -118.40180 | 126 ft | 10 kts | 84° |
| 2026-04-21 05:04 | 33.93430 | -118.40069 | 123 ft | 16 kts | 83° |
| 2026-04-21 05:04 | 33.93446 | -118.39922 | 123 ft | 19 kts | 83° |
| 2026-04-21 05:04 | 33.93465 | -118.39741 | 120 ft | 23 kts | 83° |
| 2026-04-21 05:05 | 33.93487 | -118.39529 | 117 ft | 26 kts | 83° |
| 2026-04-21 05:05 | 33.93509 | -118.39307 | 114 ft | 27 kts | 83° |
| 2026-04-21 05:05 | 33.93532 | -118.39083 | 114 ft | 26 kts | 83° |
| 2026-04-21 05:05 | 33.93554 | -118.38863 | 111 ft | 26 kts | 83° |
| 2026-04-21 05:06 | 33.93576 | -118.38648 | 110 ft | 24 kts | 83° |
| 2026-04-21 05:06 | 33.93595 | -118.38460 | 110 ft | 21 kts | 83° |
| 2026-04-21 05:06 | 33.93611 | -118.38334 | 108 ft | 13 kts | 73° |
| 2026-04-21 05:06 | 33.93660 | -118.38283 | 107 ft | 9 kts | 1° |
| 2026-04-21 05:07 | 33.93718 | -118.38301 | 107 ft | 7 kts | 319° |
| 2026-04-21 05:07 | 33.93728 | -118.38352 | 108 ft | 2 kts | 263° |
| 2026-04-21 05:08 | 33.93725 | -118.38380 | 108 ft | 21 kts | 263° |
| 2026-04-21 05:08 | 33.93671 | -118.38916 | 111 ft | 106 kts | 263° |
| 2026-04-21 05:08 | 33.93547 | -118.40110 | 129 ft | 176 kts | 263° |
| 2026-04-21 05:08 | 33.93389 | -118.41637 | 687 ft | 190 kts | 263° |
| 2026-04-21 05:09 | 33.93222 | -118.43233 | 1583 ft | 195 kts | 263° |
| 2026-04-21 05:09 | 33.93055 | -118.44833 | 2433 ft | 199 kts | 263° |
| 2026-04-21 05:09 | 33.92883 | -118.46481 | 3320 ft | 201 kts | 262° |
| 2026-04-21 05:09 | 33.92720 | -118.48164 | 4168 ft | 204 kts | 268° |
| 2026-04-21 05:10 | 33.92770 | -118.49886 | 4741 ft | 215 kts | 270° |
| 2026-04-21 05:10 | 33.92716 | -118.51747 | 5186 ft | 231 kts | 263° |
| 2026-04-21 05:10 | 33.92540 | -118.53735 | 5681 ft | 247 kts | 262° |
| 2026-04-21 05:10 | 33.92356 | -118.55845 | 6184 ft | 263 kts | 263° |
| 2026-04-21 05:11 | 33.92166 | -118.58119 | 6897 ft | 271 kts | 262° |
| 2026-04-21 05:11 | 33.91980 | -118.60359 | 7698 ft | 274 kts | 262° |
| 2026-04-21 05:11 | 33.91802 | -118.62627 | 8459 ft | 277 kts | 264° |
| 2026-04-21 05:11 | 33.91758 | -118.64944 | 9196 ft | 281 kts | 267° |
| 2026-04-21 05:12 | 33.91755 | -118.67304 | 9920 ft | 284 kts | 266° |
| 2026-04-21 05:12 | 33.91750 | -118.69693 | 10496 ft | 294 kts | 266° |
| 2026-04-21 05:12 | 33.91740 | -118.72208 | 10920 ft | 309 kts | 266° |
| 2026-04-21 05:12 | 33.91729 | -118.74863 | 11364 ft | 324 kts | 266° |
| 2026-04-21 05:13 | 33.91717 | -118.77645 | 11840 ft | 339 kts | 266° |
| 2026-04-21 05:13 | 33.91702 | -118.80542 | 11997 ft | 358 kts | 266° |
| 2026-04-21 05:13 | 33.91689 | -118.83574 | 12107 ft | 369 kts | 266° |
| 2026-04-21 05:13 | 33.91757 | -118.86699 | 12884 ft | 374 kts | 268° |
| 2026-04-21 05:14 | 33.91864 | -118.89784 | 13921 ft | 371 kts | 268° |
| 2026-04-21 05:14 | 33.91965 | -118.92859 | 14804 ft | 371 kts | 268° |
| 2026-04-21 05:14 | 33.92062 | -118.95963 | 15510 ft | 377 kts | 268° |
| 2026-04-21 05:14 | 33.92265 | -118.99114 | 16183 ft | 385 kts | 275° |
| 2026-04-21 05:15 | 33.92926 | -119.02261 | 16853 ft | 395 kts | 285° |
| 2026-04-21 05:15 | 33.94087 | -119.05293 | 17506 ft | 405 kts | 295° |
| 2026-04-21 05:15 | 33.95550 | -119.08176 | 18156 ft | 410 kts | 297° |
| 2026-04-21 05:15 | 33.97076 | -119.11105 | 18912 ft | 411 kts | 297° |
| 2026-04-21 05:16 | 33.98581 | -119.14002 | 19585 ft | 414 kts | 297° |
| 2026-04-21 05:16 | 34.00174 | -119.16888 | 20224 ft | 420 kts | 304° |
| 2026-04-21 05:16 | 34.02175 | -119.19501 | 20825 ft | 429 kts | 314° |
| 2026-04-21 05:16 | 34.04540 | -119.21729 | 21452 ft | 434 kts | 320° |
| 2026-04-21 05:17 | 34.06993 | -119.23833 | 22064 ft | 437 kts | 321° |
| 2026-04-21 05:17 | 34.09481 | -119.25960 | 22657 ft | 440 kts | 321° |
| 2026-04-21 05:17 | 34.11984 | -119.28104 | 23205 ft | 443 kts | 321° |
| 2026-04-21 05:17 | 34.14484 | -119.30250 | 23724 ft | 446 kts | 320° |
| 2026-04-21 05:18 | 34.17027 | -119.32436 | 24294 ft | 449 kts | 320° |
| 2026-04-21 05:18 | 34.19557 | -119.34614 | 24830 ft | 452 kts | 320° |
| 2026-04-21 05:18 | 34.22139 | -119.36839 | 25340 ft | 455 kts | 320° |
| 2026-04-21 05:18 | 34.24699 | -119.39049 | 25833 ft | 458 kts | 320° |
| 2026-04-21 05:19 | 34.27296 | -119.41292 | 26295 ft | 463 kts | 320° |
| 2026-04-21 05:19 | 34.29943 | -119.43580 | 26809 ft | 465 kts | 320° |
| 2026-04-21 05:19 | 34.32582 | -119.45863 | 27357 ft | 467 kts | 320° |
| 2026-04-21 05:19 | 34.35197 | -119.48127 | 27843 ft | 470 kts | 320° |
| 2026-04-21 05:20 | 34.37885 | -119.50458 | 28310 ft | 473 kts | 320° |
| 2026-04-21 05:20 | 34.40609 | -119.52695 | 28752 ft | 479 kts | 325° |
| 2026-04-21 05:20 | 34.43628 | -119.54500 | 29163 ft | 488 kts | 333° |
| 2026-04-21 05:20 | 34.46747 | -119.56029 | 29702 ft | 489 kts | 334° |
| 2026-04-21 05:21 | 34.49898 | -119.57547 | 30022 ft | 491 kts | 334° |
| 2026-04-21 05:21 | 34.53079 | -119.59081 | 30044 ft | 489 kts | 334° |
| 2026-04-21 05:21 | 34.59354 | -119.62117 | 30045 ft | 485 kts | 334° |
| 2026-04-21 05:22 | 34.65660 | -119.65180 | 30052 ft | 488 kts | 333° |
| 2026-04-21 05:22 | 34.71961 | -119.68249 | 30060 ft | 487 kts | 333° |
| 2026-04-21 05:23 | 34.78242 | -119.71315 | 30068 ft | 489 kts | 333° |
| 2026-04-21 05:23 | 34.84571 | -119.74410 | 30065 ft | 489 kts | 333° |
| 2026-04-21 05:24 | 34.90884 | -119.77502 | 30059 ft | 489 kts | 333° |
| 2026-04-21 05:24 | 34.97179 | -119.80591 | 30058 ft | 489 kts | 333° |
| 2026-04-21 05:25 | 35.03481 | -119.83690 | 30055 ft | 489 kts | 333° |
| 2026-04-21 05:25 | 35.09787 | -119.86795 | 30053 ft | 492 kts | 333° |
| 2026-04-21 05:26 | 35.16108 | -119.89925 | 30041 ft | 491 kts | 333° |
| 2026-04-21 05:26 | 35.22456 | -119.93078 | 30031 ft | 492 kts | 333° |
| 2026-04-21 05:27 | 35.28778 | -119.96223 | 30027 ft | 494 kts | 333° |
| 2026-04-21 05:27 | 35.35156 | -119.99399 | 30023 ft | 493 kts | 333° |
| 2026-04-21 05:28 | 35.41521 | -120.02574 | 30010 ft | 494 kts | 332° |
| 2026-04-21 05:28 | 35.47859 | -120.05743 | 30006 ft | 495 kts | 333° |
| 2026-04-21 05:29 | 35.54211 | -120.08923 | 29997 ft | 495 kts | 332° |
| 2026-04-21 05:29 | 35.60630 | -120.12142 | 29989 ft | 498 kts | 332° |
| 2026-04-21 05:30 | 35.67028 | -120.15356 | 29991 ft | 496 kts | 332° |
| 2026-04-21 05:30 | 35.73407 | -120.18567 | 29989 ft | 497 kts | 332° |
| 2026-04-21 05:31 | 35.79799 | -120.21789 | 29985 ft | 498 kts | 332° |
| 2026-04-21 05:31 | 35.86231 | -120.25038 | 29990 ft | 501 kts | 332° |
| 2026-04-21 05:32 | 35.92643 | -120.28281 | 29985 ft | 500 kts | 332° |
| 2026-04-21 05:32 | 35.99086 | -120.31546 | 29983 ft | 501 kts | 332° |
| 2026-04-21 05:33 | 36.05488 | -120.34795 | 29988 ft | 499 kts | 332° |
| 2026-04-21 05:33 | 36.11944 | -120.38078 | 29971 ft | 499 kts | 332° |
| 2026-04-21 05:34 | 36.15122 | -120.39694 | 29967 ft | 488 kts | 332° |
| 2026-04-21 05:34 | 36.18211 | -120.41264 | 29967 ft | 478 kts | 331° |
| 2026-04-21 05:34 | 36.24344 | -120.44395 | 29968 ft | 475 kts | 331° |
| 2026-04-21 05:35 | 36.30446 | -120.47519 | 29967 ft | 477 kts | 332° |
| 2026-04-21 05:35 | 36.36574 | -120.50658 | 29962 ft | 473 kts | 331° |
| 2026-04-21 05:36 | 36.39588 | -120.52198 | 29508 ft | 462 kts | 331° |
| 2026-04-21 05:36 | 36.42555 | -120.53724 | 28953 ft | 473 kts | 331° |
| 2026-04-21 05:36 | 36.45641 | -120.55318 | 28502 ft | 493 kts | 332° |
| 2026-04-21 05:36 | 36.48826 | -120.56958 | 28034 ft | 492 kts | 332° |
| 2026-04-21 05:37 | 36.51889 | -120.58685 | 27955 ft | 466 kts | 324° |
| 2026-04-21 05:37 | 36.54517 | -120.60788 | 27942 ft | 445 kts | 315° |
| 2026-04-21 05:37 | 36.56849 | -120.63182 | 27449 ft | 432 kts | 311° |
| 2026-04-21 05:37 | 36.59138 | -120.65662 | 26428 ft | 436 kts | 310° |
| 2026-04-21 05:38 | 36.61406 | -120.68144 | 25525 ft | 437 kts | 310° |
| 2026-04-21 05:38 | 36.63660 | -120.70619 | 24819 ft | 433 kts | 310° |
| 2026-04-21 05:38 | 36.65900 | -120.73083 | 24224 ft | 427 kts | 310° |
| 2026-04-21 05:38 | 36.68100 | -120.75513 | 23550 ft | 424 kts | 310° |
| 2026-04-21 05:39 | 36.70302 | -120.77953 | 22818 ft | 423 kts | 310° |
| 2026-04-21 05:39 | 36.72467 | -120.80354 | 22212 ft | 419 kts | 310° |
| 2026-04-21 05:39 | 36.74626 | -120.82750 | 21991 ft | 414 kts | 310° |
| 2026-04-21 05:39 | 36.76801 | -120.85175 | 21986 ft | 421 kts | 310° |
| 2026-04-21 05:40 | 36.78988 | -120.87605 | 21855 ft | 423 kts | 310° |
| 2026-04-21 05:40 | 36.81172 | -120.90024 | 21339 ft | 424 kts | 311° |
| 2026-04-21 05:40 | 36.83369 | -120.92453 | 20834 ft | 417 kts | 310° |
| 2026-04-21 05:40 | 36.85511 | -120.94823 | 20417 ft | 412 kts | 311° |
| 2026-04-21 05:41 | 36.87642 | -120.97189 | 19978 ft | 412 kts | 311° |
| 2026-04-21 05:41 | 36.89778 | -120.99562 | 19569 ft | 410 kts | 311° |
| 2026-04-21 05:41 | 36.91910 | -121.01932 | 19152 ft | 409 kts | 311° |
| 2026-04-21 05:41 | 36.94030 | -121.04290 | 18736 ft | 406 kts | 311° |
| 2026-04-21 05:42 | 36.96108 | -121.06602 | 18327 ft | 401 kts | 311° |
| 2026-04-21 05:42 | 36.98176 | -121.08906 | 17927 ft | 399 kts | 311° |
| 2026-04-21 05:42 | 37.00253 | -121.11224 | 17514 ft | 398 kts | 312° |
| 2026-04-21 05:42 | 37.02323 | -121.13535 | 17116 ft | 397 kts | 312° |
| 2026-04-21 05:43 | 37.04374 | -121.15826 | 16707 ft | 394 kts | 312° |
| 2026-04-21 05:43 | 37.06407 | -121.18097 | 16315 ft | 391 kts | 312° |
| 2026-04-21 05:43 | 37.08409 | -121.20338 | 15929 ft | 389 kts | 313° |
| 2026-04-21 05:43 | 37.10446 | -121.22618 | 15525 ft | 389 kts | 313° |
| 2026-04-21 05:44 | 37.12448 | -121.24861 | 15119 ft | 387 kts | 313° |
| 2026-04-21 05:44 | 37.14428 | -121.27100 | 14712 ft | 382 kts | 312° |
| 2026-04-21 05:44 | 37.16364 | -121.29351 | 14230 ft | 377 kts | 312° |
| 2026-04-21 05:44 | 37.18253 | -121.31551 | 13768 ft | 372 kts | 312° |
| 2026-04-21 05:45 | 37.20134 | -121.33742 | 13324 ft | 368 kts | 312° |
| 2026-04-21 05:45 | 37.21993 | -121.35909 | 12869 ft | 364 kts | 312° |
| 2026-04-21 05:45 | 37.23843 | -121.38064 | 12435 ft | 359 kts | 312° |
| 2026-04-21 05:45 | 37.25660 | -121.40183 | 11994 ft | 355 kts | 312° |
| 2026-04-21 05:46 | 37.27462 | -121.42284 | 11567 ft | 351 kts | 312° |
| 2026-04-21 05:46 | 37.29220 | -121.44335 | 11142 ft | 348 kts | 312° |
| 2026-04-21 05:46 | 37.30985 | -121.46395 | 10721 ft | 344 kts | 312° |
| 2026-04-21 05:46 | 37.32716 | -121.48416 | 10304 ft | 340 kts | 312° |
| 2026-04-21 05:47 | 37.34435 | -121.50425 | 9897 ft | 334 kts | 312° |
| 2026-04-21 05:47 | 37.36138 | -121.52418 | 9426 ft | 331 kts | 313° |
| 2026-04-21 05:47 | 37.37770 | -121.54324 | 9326 ft | 316 kts | 312° |
| 2026-04-21 05:47 | 37.39412 | -121.56214 | 8870 ft | 320 kts | 313° |
| 2026-04-21 05:48 | 37.41040 | -121.58066 | 8511 ft | 313 kts | 313° |
| 2026-04-21 05:48 | 37.42651 | -121.59898 | 8284 ft | 311 kts | 313° |
| 2026-04-21 05:48 | 37.44145 | -121.61778 | 7982 ft | 300 kts | 303° |
| 2026-04-21 05:48 | 37.45386 | -121.63839 | 7819 ft | 290 kts | 300° |
| 2026-04-21 05:49 | 37.46538 | -121.65863 | 7394 ft | 281 kts | 300° |
| 2026-04-21 05:49 | 37.47624 | -121.67768 | 7080 ft | 257 kts | 299° |
| 2026-04-21 05:49 | 37.48645 | -121.69562 | 6878 ft | 243 kts | 299° |
| 2026-04-21 05:49 | 37.49602 | -121.71242 | 6731 ft | 233 kts | 298° |
| 2026-04-21 05:50 | 37.50532 | -121.72881 | 6602 ft | 231 kts | 298° |
| 2026-04-21 05:50 | 37.51474 | -121.74536 | 6441 ft | 230 kts | 298° |
| 2026-04-21 05:50 | 37.52394 | -121.76151 | 6303 ft | 228 kts | 298° |
| 2026-04-21 05:50 | 37.53124 | -121.77908 | 6151 ft | 224 kts | 278° |
| 2026-04-21 05:51 | 37.53428 | -121.79793 | 5997 ft | 219 kts | 272° |
| 2026-04-21 05:51 | 37.53652 | -121.81682 | 5835 ft | 215 kts | 271° |
| 2026-04-21 05:51 | 37.53864 | -121.83518 | 5680 ft | 213 kts | 271° |
| 2026-04-21 05:51 | 37.54078 | -121.85360 | 5535 ft | 212 kts | 272° |
| 2026-04-21 05:52 | 37.54293 | -121.87209 | 5385 ft | 211 kts | 272° |
| 2026-04-21 05:52 | 37.54507 | -121.89030 | 5235 ft | 211 kts | 272° |
| 2026-04-21 05:52 | 37.54721 | -121.90859 | 5088 ft | 210 kts | 272° |
| 2026-04-21 05:52 | 37.54931 | -121.92658 | 4949 ft | 209 kts | 272° |
| 2026-04-21 05:53 | 37.55142 | -121.94471 | 4810 ft | 208 kts | 272° |
| 2026-04-21 05:53 | 37.55353 | -121.96285 | 4661 ft | 207 kts | 273° |
| 2026-04-21 05:53 | 37.55562 | -121.98067 | 4524 ft | 207 kts | 273° |
| 2026-04-21 05:53 | 37.55925 | -121.99814 | 4374 ft | 208 kts | 289° |
| 2026-04-21 05:54 | 37.56679 | -122.01422 | 4143 ft | 215 kts | 301° |
| 2026-04-21 05:54 | 37.57597 | -122.02890 | 3869 ft | 214 kts | 304° |
| 2026-04-21 05:54 | 37.58564 | -122.04319 | 3583 ft | 213 kts | 306° |
| 2026-04-21 05:54 | 37.59534 | -122.05720 | 3302 ft | 213 kts | 306° |
| 2026-04-21 05:55 | 37.60490 | -122.07123 | 3022 ft | 211 kts | 306° |
| 2026-04-21 05:55 | 37.61441 | -122.08529 | 2734 ft | 209 kts | 306° |
| 2026-04-21 05:55 | 37.62363 | -122.09886 | 2467 ft | 198 kts | 306° |
| 2026-04-21 05:55 | 37.63243 | -122.11185 | 2196 ft | 189 kts | 306° |
| 2026-04-21 05:56 | 37.64076 | -122.12419 | 1949 ft | 185 kts | 306° |
| 2026-04-21 05:56 | 37.64915 | -122.13663 | 1691 ft | 183 kts | 306° |
| 2026-04-21 05:56 | 37.65730 | -122.14876 | 1438 ft | 183 kts | 307° |
| 2026-04-21 05:56 | 37.66557 | -122.16104 | 1179 ft | 182 kts | 308° |
| 2026-04-21 05:57 | 37.67379 | -122.17325 | 922 ft | 180 kts | 308° |
| 2026-04-21 05:57 | 37.68164 | -122.18491 | 686 ft | 170 kts | 308° |
| 2026-04-21 05:57 | 37.68906 | -122.19595 | 452 ft | 159 kts | 308° |
| 2026-04-21 05:57 | 37.69602 | -122.20631 | 233 ft | 154 kts | 309° |
| 2026-04-21 05:58 | 37.70296 | -122.21659 | 24 ft | 150 kts | 310° |
| 2026-04-21 05:58 | 37.70878 | -122.22522 | 19 ft | 108 kts | 310° |
| 2026-04-21 05:58 | 37.71222 | -122.23013 | 19 ft | 41 kts | 318° |
| 2026-04-21 05:58 | 37.71379 | -122.23130 | 19 ft | 19 kts | 341° |
| 2026-04-21 05:59 | 37.71472 | -122.23149 | 19 ft | 11 kts | 9° |
| 2026-04-21 05:59 | 37.71495 | -122.23077 | 19 ft | 11 kts | 116° |
| 2026-04-21 05:59 | 37.71439 | -122.22987 | 19 ft | 14 kts | 130° |
| 2026-04-21 06:00 | 37.71272 | -122.22736 | 19 ft | 18 kts | 130° |
| 2026-04-21 06:00 | 37.71195 | -122.22618 | 19 ft | 16 kts | 130° |
| 2026-04-21 06:00 | 37.71124 | -122.22511 | 19 ft | 14 kts | 129° |
| 2026-04-21 06:00 | 37.71131 | -122.22407 | 19 ft | 13 kts | 43° |
| 2026-04-21 06:01 | 37.71215 | -122.22322 | 19 ft | 16 kts | 40° |
| 2026-04-21 06:01 | 37.71310 | -122.22218 | 19 ft | 19 kts | 44° |
| 2026-04-21 06:01 | 37.71404 | -122.22089 | 19 ft | 18 kts | 49° |
| 2026-04-21 06:01 | 37.71457 | -122.22013 | 19 ft | 7 kts | 49° |
| 2026-04-21 06:02 | 37.71505 | -122.21979 | 19 ft | 7 kts | 2° |
| 2026-04-21 06:02 | 37.71545 | -122.22008 | 19 ft | 6 kts | 314° |
| 2026-04-21 06:02 | 37.71579 | -122.22048 | 19 ft | 7 kts | 328° |
| 2026-04-21 06:02 | 37.71630 | -122.22050 | 19 ft | 7 kts | 26° |
| 2026-04-21 06:03 | 37.71668 | -122.22049 | 19 ft | 4 kts | 330° |
| 2026-04-21 06:03 | 37.71682 | -122.22061 | 19 ft | 0 kts | 314° |
| 2026-04-21 06:03 | 37.71684 | -122.22063 | 19 ft | 0 kts | 313° |